sensor_id;sensor_type;location;lat;lon;timestamp;P1;durP1;ratioP1;P2;durP2;ratioP2
15871;SDS011;8035;51.962;7.162;2023-03-25T00:00:18;4.00;;;1.57;;
15871;SDS011;8035;51.962;7.162;2023-03-25T00:02:48;2.90;;;1.30;;
15871;SDS011;8035;51.962;7.162;2023-03-25T00:05:14;1.37;;;1.10;;
15871;SDS011;8035;51.962;7.162;2023-03-25T00:07:41;4.27;;;1.37;;
15871;SDS011;8035;51.962;7.162;2023-03-25T00:10:08;3.23;;;1.20;;
15871;SDS011;8035;51.962;7.162;2023-03-25T00:12:34;4.13;;;1.20;;
15871;SDS011;8035;51.962;7.162;2023-03-25T00:15:00;2.80;;;1.30;;
15871;SDS011;8035;51.962;7.162;2023-03-25T00:17:26;2.77;;;1.27;;
15871;SDS011;8035;51.962;7.162;2023-03-25T00:19:56;2.40;;;1.50;;
15871;SDS011;8035;51.962;7.162;2023-03-25T00:22:24;4.67;;;2.07;;
15871;SDS011;8035;51.962;7.162;2023-03-25T00:24:50;1.83;;;1.17;;
15871;SDS011;8035;51.962;7.162;2023-03-25T00:27:16;3.13;;;1.70;;
15871;SDS011;8035;51.962;7.162;2023-03-25T00:29:43;3.90;;;1.50;;
15871;SDS011;8035;51.962;7.162;2023-03-25T00:32:10;4.90;;;1.30;;
15871;SDS011;8035;51.962;7.162;2023-03-25T00:34:36;2.97;;;1.63;;
15871;SDS011;8035;51.962;7.162;2023-03-25T00:37:08;5.53;;;1.93;;
15871;SDS011;8035;51.962;7.162;2023-03-25T00:39:37;5.97;;;1.47;;
15871;SDS011;8035;51.962;7.162;2023-03-25T00:42:04;3.17;;;1.40;;
15871;SDS011;8035;51.962;7.162;2023-03-25T00:44:30;4.20;;;1.53;;
15871;SDS011;8035;51.962;7.162;2023-03-25T00:46:56;4.20;;;1.27;;
15871;SDS011;8035;51.962;7.162;2023-03-25T00:49:23;2.77;;;1.47;;
15871;SDS011;8035;51.962;7.162;2023-03-25T00:51:49;2.73;;;1.60;;
15871;SDS011;8035;51.962;7.162;2023-03-25T00:54:16;2.57;;;1.57;;
15871;SDS011;8035;51.962;7.162;2023-03-25T00:56:42;2.00;;;1.43;;
15871;SDS011;8035;51.962;7.162;2023-03-25T00:59:08;4.00;;;1.60;;
15871;SDS011;8035;51.962;7.162;2023-03-25T01:01:35;4.03;;;1.30;;
15871;SDS011;8035;51.962;7.162;2023-03-25T01:04:03;3.37;;;1.43;;
15871;SDS011;8035;51.962;7.162;2023-03-25T01:06:36;2.23;;;1.37;;
15871;SDS011;8035;51.962;7.162;2023-03-25T01:09:04;4.40;;;1.73;;
15871;SDS011;8035;51.962;7.162;2023-03-25T01:11:49;7.57;;;1.60;;
15871;SDS011;8035;51.962;7.162;2023-03-25T01:14:19;2.63;;;1.40;;
15871;SDS011;8035;51.962;7.162;2023-03-25T01:16:46;6.00;;;1.60;;
15871;SDS011;8035;51.962;7.162;2023-03-25T01:19:12;8.30;;;1.50;;
15871;SDS011;8035;51.962;7.162;2023-03-25T01:24:23;1.90;;;1.23;;
15871;SDS011;8035;51.962;7.162;2023-03-25T01:26:49;4.10;;;1.30;;
15871;SDS011;8035;51.962;7.162;2023-03-25T01:29:16;5.83;;;1.47;;
15871;SDS011;8035;51.962;7.162;2023-03-25T01:31:42;5.53;;;2.20;;
15871;SDS011;8035;51.962;7.162;2023-03-25T01:34:09;3.70;;;1.63;;
15871;SDS011;8035;51.962;7.162;2023-03-25T01:36:35;6.13;;;1.50;;
15871;SDS011;8035;51.962;7.162;2023-03-25T01:39:04;4.90;;;1.50;;
15871;SDS011;8035;51.962;7.162;2023-03-25T01:41:30;4.30;;;1.50;;
15871;SDS011;8035;51.962;7.162;2023-03-25T01:44:03;5.03;;;1.57;;
15871;SDS011;8035;51.962;7.162;2023-03-25T01:46:30;3.90;;;1.30;;
15871;SDS011;8035;51.962;7.162;2023-03-25T01:48:56;4.67;;;1.90;;
15871;SDS011;8035;51.962;7.162;2023-03-25T01:51:26;5.73;;;1.50;;
15871;SDS011;8035;51.962;7.162;2023-03-25T01:53:53;4.97;;;1.60;;
15871;SDS011;8035;51.962;7.162;2023-03-25T01:56:24;8.67;;;2.10;;
15871;SDS011;8035;51.962;7.162;2023-03-25T01:58:51;3.27;;;1.60;;
15871;SDS011;8035;51.962;7.162;2023-03-25T02:01:18;3.03;;;1.50;;
15871;SDS011;8035;51.962;7.162;2023-03-25T02:03:45;3.80;;;1.53;;
15871;SDS011;8035;51.962;7.162;2023-03-25T02:06:22;7.20;;;2.93;;
15871;SDS011;8035;51.962;7.162;2023-03-25T02:08:53;5.20;;;1.90;;
15871;SDS011;8035;51.962;7.162;2023-03-25T02:11:20;2.43;;;1.60;;
15871;SDS011;8035;51.962;7.162;2023-03-25T02:13:46;3.57;;;1.50;;
15871;SDS011;8035;51.962;7.162;2023-03-25T02:40:17;3.70;;;1.87;;
15871;SDS011;8035;51.962;7.162;2023-03-25T02:45:12;3.40;;;1.57;;
15871;SDS011;8035;51.962;7.162;2023-03-25T02:47:44;4.00;;;1.60;;
15871;SDS011;8035;51.962;7.162;2023-03-25T02:50:16;4.27;;;1.60;;
15871;SDS011;8035;51.962;7.162;2023-03-25T02:52:46;8.83;;;1.60;;
15871;SDS011;8035;51.962;7.162;2023-03-25T02:55:13;3.80;;;1.63;;
15871;SDS011;8035;51.962;7.162;2023-03-25T02:57:41;4.93;;;1.70;;
15871;SDS011;8035;51.962;7.162;2023-03-25T03:00:09;4.07;;;1.47;;
15871;SDS011;8035;51.962;7.162;2023-03-25T03:02:47;1.60;;;1.50;;
15871;SDS011;8035;51.962;7.162;2023-03-25T03:05:22;3.80;;;1.77;;
15871;SDS011;8035;51.962;7.162;2023-03-25T03:07:49;3.53;;;1.83;;
15871;SDS011;8035;51.962;7.162;2023-03-25T03:10:22;3.63;;;1.73;;
15871;SDS011;8035;51.962;7.162;2023-03-25T03:16:05;4.47;;;2.00;;
15871;SDS011;8035;51.962;7.162;2023-03-25T03:23:59;3.70;;;1.80;;
15871;SDS011;8035;51.962;7.162;2023-03-25T03:26:33;7.60;;;2.10;;
15871;SDS011;8035;51.962;7.162;2023-03-25T03:31:39;4.00;;;1.80;;
15871;SDS011;8035;51.962;7.162;2023-03-25T03:34:13;4.57;;;1.73;;
15871;SDS011;8035;51.962;7.162;2023-03-25T03:36:46;4.23;;;1.73;;
15871;SDS011;8035;51.962;7.162;2023-03-25T03:39:16;4.03;;;1.70;;
15871;SDS011;8035;51.962;7.162;2023-03-25T03:41:45;2.23;;;1.67;;
15871;SDS011;8035;51.962;7.162;2023-03-25T03:44:13;4.40;;;1.93;;
15871;SDS011;8035;51.962;7.162;2023-03-25T03:46:42;2.50;;;1.60;;
15871;SDS011;8035;51.962;7.162;2023-03-25T03:49:11;5.60;;;2.17;;
15871;SDS011;8035;51.962;7.162;2023-03-25T03:51:48;3.50;;;1.70;;
15871;SDS011;8035;51.962;7.162;2023-03-25T03:54:24;4.03;;;1.77;;
15871;SDS011;8035;51.962;7.162;2023-03-25T03:56:52;3.60;;;1.70;;
15871;SDS011;8035;51.962;7.162;2023-03-25T03:59:22;5.07;;;1.50;;
15871;SDS011;8035;51.962;7.162;2023-03-25T04:01:52;2.17;;;1.50;;
15871;SDS011;8035;51.962;7.162;2023-03-25T04:04:21;3.03;;;1.70;;
15871;SDS011;8035;51.962;7.162;2023-03-25T04:12:04;4.53;;;1.70;;
15871;SDS011;8035;51.962;7.162;2023-03-25T04:14:33;4.50;;;2.07;;
15871;SDS011;8035;51.962;7.162;2023-03-25T04:17:00;4.00;;;1.50;;
15871;SDS011;8035;51.962;7.162;2023-03-25T04:19:26;6.63;;;1.93;;
15871;SDS011;8035;51.962;7.162;2023-03-25T04:21:52;2.17;;;1.50;;
15871;SDS011;8035;51.962;7.162;2023-03-25T04:24:19;5.60;;;2.00;;
15871;SDS011;8035;51.962;7.162;2023-03-25T04:26:45;5.33;;;1.50;;
15871;SDS011;8035;51.962;7.162;2023-03-25T04:29:11;4.17;;;2.10;;
15871;SDS011;8035;51.962;7.162;2023-03-25T04:31:40;2.80;;;1.90;;
15871;SDS011;8035;51.962;7.162;2023-03-25T04:34:10;3.80;;;1.53;;
15871;SDS011;8035;51.962;7.162;2023-03-25T04:36:38;3.43;;;1.63;;
15871;SDS011;8035;51.962;7.162;2023-03-25T04:39:07;3.43;;;1.50;;
15871;SDS011;8035;51.962;7.162;2023-03-25T04:41:33;3.33;;;1.80;;
15871;SDS011;8035;51.962;7.162;2023-03-25T04:43:59;1.93;;;1.40;;
15871;SDS011;8035;51.962;7.162;2023-03-25T04:46:25;4.33;;;1.73;;
15871;SDS011;8035;51.962;7.162;2023-03-25T04:48:51;4.00;;;2.00;;
15871;SDS011;8035;51.962;7.162;2023-03-25T04:51:18;3.73;;;2.33;;
15871;SDS011;8035;51.962;7.162;2023-03-25T04:53:44;2.33;;;1.90;;
15871;SDS011;8035;51.962;7.162;2023-03-25T04:56:17;2.67;;;1.33;;
15871;SDS011;8035;51.962;7.162;2023-03-25T04:58:43;3.63;;;1.63;;
15871;SDS011;8035;51.962;7.162;2023-03-25T05:01:14;4.23;;;1.60;;
15871;SDS011;8035;51.962;7.162;2023-03-25T05:03:44;5.37;;;1.90;;
15871;SDS011;8035;51.962;7.162;2023-03-25T05:06:14;2.93;;;1.80;;
15871;SDS011;8035;51.962;7.162;2023-03-25T05:08:40;2.90;;;1.60;;
15871;SDS011;8035;51.962;7.162;2023-03-25T05:11:06;2.27;;;1.77;;
15871;SDS011;8035;51.962;7.162;2023-03-25T05:13:32;4.47;;;1.90;;
15871;SDS011;8035;51.962;7.162;2023-03-25T05:15:58;3.37;;;1.90;;
15871;SDS011;8035;51.962;7.162;2023-03-25T05:18:25;4.13;;;1.53;;
15871;SDS011;8035;51.962;7.162;2023-03-25T05:20:51;4.37;;;1.80;;
15871;SDS011;8035;51.962;7.162;2023-03-25T05:23:17;6.33;;;1.70;;
15871;SDS011;8035;51.962;7.162;2023-03-25T05:25:44;3.57;;;1.53;;
15871;SDS011;8035;51.962;7.162;2023-03-25T05:28:11;3.27;;;1.67;;
15871;SDS011;8035;51.962;7.162;2023-03-25T05:30:40;6.57;;;1.90;;
15871;SDS011;8035;51.962;7.162;2023-03-25T05:33:08;2.97;;;1.53;;
15871;SDS011;8035;51.962;7.162;2023-03-25T05:35:37;3.57;;;1.60;;
15871;SDS011;8035;51.962;7.162;2023-03-25T05:38:03;3.87;;;2.03;;
15871;SDS011;8035;51.962;7.162;2023-03-25T05:40:30;5.13;;;1.73;;
15871;SDS011;8035;51.962;7.162;2023-03-25T05:42:57;4.27;;;1.80;;
15871;SDS011;8035;51.962;7.162;2023-03-25T05:45:23;3.03;;;1.60;;
15871;SDS011;8035;51.962;7.162;2023-03-25T05:47:49;4.50;;;1.77;;
15871;SDS011;8035;51.962;7.162;2023-03-25T05:50:15;5.37;;;1.70;;
15871;SDS011;8035;51.962;7.162;2023-03-25T05:52:41;5.13;;;1.90;;
15871;SDS011;8035;51.962;7.162;2023-03-25T05:55:12;4.63;;;1.70;;
15871;SDS011;8035;51.962;7.162;2023-03-25T05:57:39;4.43;;;2.10;;
15871;SDS011;8035;51.962;7.162;2023-03-25T06:00:06;3.10;;;1.80;;
15871;SDS011;8035;51.962;7.162;2023-03-25T06:02:33;6.83;;;1.80;;
15871;SDS011;8035;51.962;7.162;2023-03-25T06:04:59;5.73;;;2.00;;
15871;SDS011;8035;51.962;7.162;2023-03-25T06:07:25;5.07;;;1.43;;
15871;SDS011;8035;51.962;7.162;2023-03-25T06:09:51;4.23;;;1.57;;
15871;SDS011;8035;51.962;7.162;2023-03-25T06:12:20;6.30;;;1.70;;
15871;SDS011;8035;51.962;7.162;2023-03-25T06:14:46;3.83;;;1.40;;
15871;SDS011;8035;51.962;7.162;2023-03-25T06:17:13;5.80;;;1.90;;
15871;SDS011;8035;51.962;7.162;2023-03-25T06:19:39;2.80;;;1.47;;
15871;SDS011;8035;51.962;7.162;2023-03-25T06:22:06;3.23;;;1.70;;
15871;SDS011;8035;51.962;7.162;2023-03-25T06:24:35;3.70;;;1.40;;
15871;SDS011;8035;51.962;7.162;2023-03-25T06:27:02;1.83;;;1.27;;
15871;SDS011;8035;51.962;7.162;2023-03-25T06:29:28;4.43;;;1.37;;
15871;SDS011;8035;51.962;7.162;2023-03-25T06:31:54;4.10;;;1.90;;
15871;SDS011;8035;51.962;7.162;2023-03-25T06:34:20;4.07;;;1.53;;
15871;SDS011;8035;51.962;7.162;2023-03-25T06:36:46;3.17;;;1.93;;
15871;SDS011;8035;51.962;7.162;2023-03-25T06:39:14;4.60;;;1.40;;
15871;SDS011;8035;51.962;7.162;2023-03-25T06:41:40;3.17;;;1.53;;
15871;SDS011;8035;51.962;7.162;2023-03-25T06:44:06;4.40;;;1.33;;
15871;SDS011;8035;51.962;7.162;2023-03-25T06:46:32;3.90;;;1.50;;
15871;SDS011;8035;51.962;7.162;2023-03-25T06:48:58;5.03;;;2.10;;
15871;SDS011;8035;51.962;7.162;2023-03-25T06:51:24;3.43;;;1.33;;
15871;SDS011;8035;51.962;7.162;2023-03-25T06:53:51;4.23;;;1.13;;
15871;SDS011;8035;51.962;7.162;2023-03-25T06:56:17;4.63;;;1.60;;
15871;SDS011;8035;51.962;7.162;2023-03-25T06:58:43;5.00;;;1.50;;
15871;SDS011;8035;51.962;7.162;2023-03-25T07:01:09;4.20;;;1.23;;
15871;SDS011;8035;51.962;7.162;2023-03-25T07:03:35;4.53;;;1.60;;
15871;SDS011;8035;51.962;7.162;2023-03-25T07:06:02;4.60;;;1.63;;
15871;SDS011;8035;51.962;7.162;2023-03-25T07:08:28;3.03;;;1.50;;
15871;SDS011;8035;51.962;7.162;2023-03-25T07:11:01;3.13;;;1.40;;
15871;SDS011;8035;51.962;7.162;2023-03-25T07:13:27;2.90;;;1.50;;
15871;SDS011;8035;51.962;7.162;2023-03-25T07:15:55;5.20;;;1.70;;
15871;SDS011;8035;51.962;7.162;2023-03-25T07:18:21;3.53;;;1.70;;
15871;SDS011;8035;51.962;7.162;2023-03-25T07:20:47;3.80;;;1.43;;
15871;SDS011;8035;51.962;7.162;2023-03-25T07:23:13;8.30;;;2.30;;
15871;SDS011;8035;51.962;7.162;2023-03-25T07:25:39;7.07;;;1.87;;
15871;SDS011;8035;51.962;7.162;2023-03-25T07:30:50;6.83;;;1.93;;
15871;SDS011;8035;51.962;7.162;2023-03-25T07:33:16;2.90;;;1.57;;
15871;SDS011;8035;51.962;7.162;2023-03-25T07:35:42;4.07;;;1.90;;
15871;SDS011;8035;51.962;7.162;2023-03-25T07:38:08;7.10;;;2.77;;
15871;SDS011;8035;51.962;7.162;2023-03-25T07:40:34;3.90;;;1.60;;
15871;SDS011;8035;51.962;7.162;2023-03-25T07:43:00;5.73;;;1.63;;
15871;SDS011;8035;51.962;7.162;2023-03-25T07:45:26;10.00;;;2.43;;
15871;SDS011;8035;51.962;7.162;2023-03-25T07:47:52;3.37;;;2.00;;
15871;SDS011;8035;51.962;7.162;2023-03-25T07:50:18;5.67;;;1.97;;
15871;SDS011;8035;51.962;7.162;2023-03-25T07:52:45;4.50;;;1.60;;
15871;SDS011;8035;51.962;7.162;2023-03-25T07:55:11;7.03;;;2.20;;
15871;SDS011;8035;51.962;7.162;2023-03-25T07:57:38;5.13;;;1.87;;
15871;SDS011;8035;51.962;7.162;2023-03-25T08:00:06;6.70;;;2.40;;
15871;SDS011;8035;51.962;7.162;2023-03-25T08:02:32;5.70;;;2.07;;
15871;SDS011;8035;51.962;7.162;2023-03-25T08:04:59;5.07;;;1.90;;
15871;SDS011;8035;51.962;7.162;2023-03-25T08:07:25;5.10;;;2.03;;
15871;SDS011;8035;51.962;7.162;2023-03-25T08:09:52;6.03;;;2.80;;
15871;SDS011;8035;51.962;7.162;2023-03-25T08:12:18;5.27;;;2.33;;
15871;SDS011;8035;51.962;7.162;2023-03-25T08:14:45;7.67;;;2.20;;
15871;SDS011;8035;51.962;7.162;2023-03-25T08:17:11;6.47;;;2.10;;
15871;SDS011;8035;51.962;7.162;2023-03-25T08:19:37;5.33;;;2.40;;
15871;SDS011;8035;51.962;7.162;2023-03-25T08:22:03;7.17;;;1.90;;
15871;SDS011;8035;51.962;7.162;2023-03-25T08:24:29;7.67;;;2.40;;
15871;SDS011;8035;51.962;7.162;2023-03-25T08:26:56;7.43;;;2.83;;
15871;SDS011;8035;51.962;7.162;2023-03-25T08:29:24;5.17;;;2.53;;
15871;SDS011;8035;51.962;7.162;2023-03-25T08:31:51;6.20;;;2.03;;
15871;SDS011;8035;51.962;7.162;2023-03-25T08:34:18;6.70;;;2.47;;
15871;SDS011;8035;51.962;7.162;2023-03-25T08:36:44;4.37;;;2.10;;
15871;SDS011;8035;51.962;7.162;2023-03-25T08:39:10;5.20;;;1.90;;
15871;SDS011;8035;51.962;7.162;2023-03-25T08:41:37;4.10;;;1.93;;
15871;SDS011;8035;51.962;7.162;2023-03-25T08:44:03;6.77;;;2.20;;
15871;SDS011;8035;51.962;7.162;2023-03-25T08:46:29;7.40;;;1.93;;
15871;SDS011;8035;51.962;7.162;2023-03-25T08:48:55;9.83;;;2.83;;
15871;SDS011;8035;51.962;7.162;2023-03-25T08:51:21;6.80;;;2.10;;
15871;SDS011;8035;51.962;7.162;2023-03-25T08:53:48;7.10;;;2.23;;
15871;SDS011;8035;51.962;7.162;2023-03-25T08:56:14;4.90;;;1.83;;
15871;SDS011;8035;51.962;7.162;2023-03-25T08:58:40;8.90;;;2.40;;
15871;SDS011;8035;51.962;7.162;2023-03-25T09:01:06;6.17;;;2.03;;
15871;SDS011;8035;51.962;7.162;2023-03-25T09:03:32;10.50;;;2.50;;
15871;SDS011;8035;51.962;7.162;2023-03-25T09:06:02;6.23;;;2.17;;
15871;SDS011;8035;51.962;7.162;2023-03-25T09:08:28;6.33;;;2.37;;
15871;SDS011;8035;51.962;7.162;2023-03-25T09:10:54;7.20;;;2.30;;
15871;SDS011;8035;51.962;7.162;2023-03-25T09:13:20;6.83;;;2.10;;
15871;SDS011;8035;51.962;7.162;2023-03-25T09:15:46;6.10;;;2.37;;
15871;SDS011;8035;51.962;7.162;2023-03-25T09:18:12;7.07;;;2.10;;
15871;SDS011;8035;51.962;7.162;2023-03-25T09:20:39;7.43;;;2.20;;
15871;SDS011;8035;51.962;7.162;2023-03-25T09:23:05;6.77;;;2.20;;
15871;SDS011;8035;51.962;7.162;2023-03-25T09:25:33;7.23;;;2.20;;
15871;SDS011;8035;51.962;7.162;2023-03-25T09:27:59;6.13;;;2.30;;
15871;SDS011;8035;51.962;7.162;2023-03-25T09:30:25;8.23;;;2.60;;
15871;SDS011;8035;51.962;7.162;2023-03-25T09:32:51;6.83;;;2.17;;
15871;SDS011;8035;51.962;7.162;2023-03-25T09:35:17;7.33;;;2.63;;
15871;SDS011;8035;51.962;7.162;2023-03-25T09:37:43;8.60;;;2.70;;
15871;SDS011;8035;51.962;7.162;2023-03-25T09:40:16;6.43;;;2.03;;
15871;SDS011;8035;51.962;7.162;2023-03-25T09:47:44;5.97;;;2.03;;
15871;SDS011;8035;51.962;7.162;2023-03-25T09:50:13;9.30;;;2.17;;
15871;SDS011;8035;51.962;7.162;2023-03-25T09:52:47;4.90;;;2.27;;
15871;SDS011;8035;51.962;7.162;2023-03-25T09:55:17;6.53;;;2.00;;
15871;SDS011;8035;51.962;7.162;2023-03-25T09:57:46;7.87;;;2.60;;
15871;SDS011;8035;51.962;7.162;2023-03-25T10:00:16;5.90;;;2.43;;
15871;SDS011;8035;51.962;7.162;2023-03-25T10:10:27;8.17;;;1.77;;
15871;SDS011;8035;51.962;7.162;2023-03-25T10:20:41;7.80;;;1.90;;
15871;SDS011;8035;51.962;7.162;2023-03-25T10:26:03;6.23;;;1.90;;
15871;SDS011;8035;51.962;7.162;2023-03-25T10:28:32;3.30;;;1.70;;
15871;SDS011;8035;51.962;7.162;2023-03-25T10:31:00;5.83;;;1.77;;
15871;SDS011;8035;51.962;7.162;2023-03-25T10:33:32;8.70;;;2.30;;
15871;SDS011;8035;51.962;7.162;2023-03-25T10:36:00;8.03;;;2.03;;
15871;SDS011;8035;51.962;7.162;2023-03-25T10:38:27;7.77;;;2.17;;
15871;SDS011;8035;51.962;7.162;2023-03-25T10:41:16;5.87;;;2.00;;
15871;SDS011;8035;51.962;7.162;2023-03-25T10:43:44;6.27;;;2.20;;
15871;SDS011;8035;51.962;7.162;2023-03-25T10:48:55;6.37;;;2.20;;
15871;SDS011;8035;51.962;7.162;2023-03-25T10:51:24;12.47;;;2.77;;
15871;SDS011;8035;51.962;7.162;2023-03-25T10:53:51;9.97;;;2.47;;
15871;SDS011;8035;51.962;7.162;2023-03-25T10:56:20;7.33;;;2.60;;
15871;SDS011;8035;51.962;7.162;2023-03-25T10:58:49;7.93;;;2.30;;
15871;SDS011;8035;51.962;7.162;2023-03-25T11:01:19;5.97;;;2.50;;
15871;SDS011;8035;51.962;7.162;2023-03-25T11:03:50;11.73;;;2.37;;
15871;SDS011;8035;51.962;7.162;2023-03-25T11:06:24;7.37;;;2.47;;
15871;SDS011;8035;51.962;7.162;2023-03-25T11:08:59;7.40;;;2.60;;
15871;SDS011;8035;51.962;7.162;2023-03-25T11:11:36;6.83;;;2.50;;
15871;SDS011;8035;51.962;7.162;2023-03-25T11:14:02;8.90;;;2.80;;
15871;SDS011;8035;51.962;7.162;2023-03-25T11:16:32;6.17;;;2.20;;
15871;SDS011;8035;51.962;7.162;2023-03-25T11:19:00;7.50;;;2.50;;
15871;SDS011;8035;51.962;7.162;2023-03-25T11:21:29;8.23;;;2.37;;
15871;SDS011;8035;51.962;7.162;2023-03-25T11:23:57;4.30;;;1.70;;
15871;SDS011;8035;51.962;7.162;2023-03-25T11:26:28;4.47;;;1.80;;
15871;SDS011;8035;51.962;7.162;2023-03-25T11:29:00;4.80;;;1.60;;
15871;SDS011;8035;51.962;7.162;2023-03-25T11:31:27;2.70;;;1.30;;
15871;SDS011;8035;51.962;7.162;2023-03-25T11:36:39;3.17;;;1.20;;
15871;SDS011;8035;51.962;7.162;2023-03-25T11:39:33;3.40;;;1.40;;
15871;SDS011;8035;51.962;7.162;2023-03-25T11:41:58;4.87;;;1.40;;
15871;SDS011;8035;51.962;7.162;2023-03-25T11:44:28;4.77;;;1.63;;
15871;SDS011;8035;51.962;7.162;2023-03-25T11:46:56;4.47;;;1.40;;
15871;SDS011;8035;51.962;7.162;2023-03-25T11:49:23;6.63;;;1.50;;
15871;SDS011;8035;51.962;7.162;2023-03-25T11:51:59;4.57;;;1.63;;
15871;SDS011;8035;51.962;7.162;2023-03-25T11:54:26;4.70;;;1.60;;
15871;SDS011;8035;51.962;7.162;2023-03-25T11:56:53;4.23;;;1.83;;
15871;SDS011;8035;51.962;7.162;2023-03-25T11:59:25;7.50;;;2.60;;
15871;SDS011;8035;51.962;7.162;2023-03-25T12:01:58;3.90;;;1.90;;
15871;SDS011;8035;51.962;7.162;2023-03-25T12:04:25;7.30;;;2.40;;
15871;SDS011;8035;51.962;7.162;2023-03-25T12:09:24;5.50;;;2.10;;
15871;SDS011;8035;51.962;7.162;2023-03-25T12:11:56;5.63;;;1.97;;
15871;SDS011;8035;51.962;7.162;2023-03-25T12:14:28;7.10;;;2.20;;
15871;SDS011;8035;51.962;7.162;2023-03-25T12:17:03;7.00;;;2.57;;
15871;SDS011;8035;51.962;7.162;2023-03-25T12:24:55;6.63;;;2.37;;
15871;SDS011;8035;51.962;7.162;2023-03-25T12:27:32;7.60;;;2.00;;
15871;SDS011;8035;51.962;7.162;2023-03-25T12:30:07;6.40;;;2.20;;
15871;SDS011;8035;51.962;7.162;2023-03-25T12:32:43;4.83;;;2.23;;
15871;SDS011;8035;51.962;7.162;2023-03-25T12:35:14;9.27;;;2.80;;
15871;SDS011;8035;51.962;7.162;2023-03-25T12:38:00;5.97;;;2.60;;
15871;SDS011;8035;51.962;7.162;2023-03-25T12:40:31;9.23;;;2.63;;
15871;SDS011;8035;51.962;7.162;2023-03-25T12:43:07;5.10;;;2.20;;
15871;SDS011;8035;51.962;7.162;2023-03-25T12:48:21;7.20;;;2.33;;
15871;SDS011;8035;51.962;7.162;2023-03-25T12:50:54;8.03;;;2.40;;
15871;SDS011;8035;51.962;7.162;2023-03-25T12:53:35;4.60;;;1.87;;
15871;SDS011;8035;51.962;7.162;2023-03-25T13:06:30;6.20;;;1.77;;
15871;SDS011;8035;51.962;7.162;2023-03-25T13:09:04;5.17;;;1.20;;
15871;SDS011;8035;51.962;7.162;2023-03-25T13:14:08;7.93;;;1.80;;
15871;SDS011;8035;51.962;7.162;2023-03-25T13:19:22;5.00;;;1.80;;
15871;SDS011;8035;51.962;7.162;2023-03-25T13:21:52;4.63;;;1.77;;
15871;SDS011;8035;51.962;7.162;2023-03-25T13:24:36;3.33;;;1.60;;
15871;SDS011;8035;51.962;7.162;2023-03-25T13:27:03;6.67;;;1.90;;
15871;SDS011;8035;51.962;7.162;2023-03-25T13:29:30;5.50;;;2.10;;
15871;SDS011;8035;51.962;7.162;2023-03-25T13:32:00;5.50;;;1.67;;
15871;SDS011;8035;51.962;7.162;2023-03-25T13:34:35;6.20;;;1.80;;
15871;SDS011;8035;51.962;7.162;2023-03-25T13:39:43;5.70;;;1.80;;
15871;SDS011;8035;51.962;7.162;2023-03-25T13:44:54;5.20;;;1.97;;
15871;SDS011;8035;51.962;7.162;2023-03-25T13:49:52;3.63;;;1.77;;
15871;SDS011;8035;51.962;7.162;2023-03-25T13:52:20;4.17;;;1.40;;
15871;SDS011;8035;51.962;7.162;2023-03-25T13:54:54;4.87;;;1.40;;
15871;SDS011;8035;51.962;7.162;2023-03-25T13:57:25;8.80;;;2.03;;
15871;SDS011;8035;51.962;7.162;2023-03-25T14:10:49;5.23;;;1.77;;
15871;SDS011;8035;51.962;7.162;2023-03-25T14:13:18;4.53;;;1.50;;
15871;SDS011;8035;51.962;7.162;2023-03-25T14:15:58;3.03;;;1.40;;
15871;SDS011;8035;51.962;7.162;2023-03-25T14:18:26;4.23;;;1.23;;
15871;SDS011;8035;51.962;7.162;2023-03-25T14:20:56;5.07;;;1.67;;
15871;SDS011;8035;51.962;7.162;2023-03-25T14:23:22;4.13;;;1.40;;
15871;SDS011;8035;51.962;7.162;2023-03-25T14:25:54;3.20;;;1.33;;
15871;SDS011;8035;51.962;7.162;2023-03-25T14:28:35;3.97;;;1.57;;
15871;SDS011;8035;51.962;7.162;2023-03-25T14:31:44;4.70;;;1.90;;
15871;SDS011;8035;51.962;7.162;2023-03-25T14:36:27;6.20;;;1.60;;
15871;SDS011;8035;51.962;7.162;2023-03-25T14:38:53;5.47;;;1.57;;
15871;SDS011;8035;51.962;7.162;2023-03-25T14:44:17;5.50;;;1.60;;
15871;SDS011;8035;51.962;7.162;2023-03-25T14:46:44;5.43;;;1.93;;
15871;SDS011;8035;51.962;7.162;2023-03-25T14:49:18;4.13;;;1.67;;
15871;SDS011;8035;51.962;7.162;2023-03-25T14:51:47;6.17;;;1.73;;
15871;SDS011;8035;51.962;7.162;2023-03-25T14:56:54;4.73;;;1.80;;
15871;SDS011;8035;51.962;7.162;2023-03-25T14:59:22;4.03;;;1.50;;
15871;SDS011;8035;51.962;7.162;2023-03-25T15:01:49;6.93;;;1.87;;
15871;SDS011;8035;51.962;7.162;2023-03-25T15:07:52;4.90;;;2.00;;
15871;SDS011;8035;51.962;7.162;2023-03-25T15:09:58;4.20;;;1.73;;
15871;SDS011;8035;51.962;7.162;2023-03-25T15:12:24;3.53;;;1.50;;
15871;SDS011;8035;51.962;7.162;2023-03-25T15:14:54;7.47;;;1.53;;
15871;SDS011;8035;51.962;7.162;2023-03-25T15:22:33;4.23;;;1.70;;
15871;SDS011;8035;51.962;7.162;2023-03-25T15:24:59;4.20;;;2.17;;
15871;SDS011;8035;51.962;7.162;2023-03-25T15:27:36;6.33;;;1.87;;
15871;SDS011;8035;51.962;7.162;2023-03-25T15:30:30;8.00;;;2.00;;
15871;SDS011;8035;51.962;7.162;2023-03-25T15:35:58;6.37;;;2.10;;
15871;SDS011;8035;51.962;7.162;2023-03-25T15:41:00;4.87;;;1.60;;
15871;SDS011;8035;51.962;7.162;2023-03-25T15:46:07;8.07;;;1.60;;
15871;SDS011;8035;51.962;7.162;2023-03-25T15:56:40;5.63;;;1.73;;
15871;SDS011;8035;51.962;7.162;2023-03-25T15:59:11;6.20;;;1.80;;
15871;SDS011;8035;51.962;7.162;2023-03-25T16:01:45;5.60;;;1.73;;
15871;SDS011;8035;51.962;7.162;2023-03-25T16:06:45;5.50;;;1.70;;
15871;SDS011;8035;51.962;7.162;2023-03-25T16:09:16;3.70;;;1.40;;
15871;SDS011;8035;51.962;7.162;2023-03-25T16:11:43;6.63;;;1.90;;
15871;SDS011;8035;51.962;7.162;2023-03-25T16:16:37;9.17;;;4.07;;
15871;SDS011;8035;51.962;7.162;2023-03-25T16:19:04;5.00;;;2.20;;
15871;SDS011;8035;51.962;7.162;2023-03-25T16:21:33;5.53;;;1.80;;
15871;SDS011;8035;51.962;7.162;2023-03-25T16:24:01;4.17;;;1.47;;
15871;SDS011;8035;51.962;7.162;2023-03-25T16:26:36;6.07;;;1.70;;
15871;SDS011;8035;51.962;7.162;2023-03-25T16:29:14;6.77;;;1.80;;
15871;SDS011;8035;51.962;7.162;2023-03-25T16:31:50;3.87;;;1.87;;
15871;SDS011;8035;51.962;7.162;2023-03-25T16:34:16;6.73;;;2.10;;
15871;SDS011;8035;51.962;7.162;2023-03-25T16:36:44;8.27;;;2.27;;
15871;SDS011;8035;51.962;7.162;2023-03-25T16:39:12;9.07;;;2.07;;
15871;SDS011;8035;51.962;7.162;2023-03-25T16:41:41;6.53;;;2.20;;
15871;SDS011;8035;51.962;7.162;2023-03-25T16:44:09;9.23;;;2.27;;
15871;SDS011;8035;51.962;7.162;2023-03-25T16:46:37;9.23;;;2.20;;
15871;SDS011;8035;51.962;7.162;2023-03-25T16:49:04;5.57;;;1.93;;
15871;SDS011;8035;51.962;7.162;2023-03-25T16:51:31;3.70;;;1.50;;
15871;SDS011;8035;51.962;7.162;2023-03-25T16:54:00;2.00;;;0.80;;
15871;SDS011;8035;51.962;7.162;2023-03-25T16:56:32;3.87;;;1.00;;
15871;SDS011;8035;51.962;7.162;2023-03-25T16:59:43;2.97;;;0.80;;
15871;SDS011;8035;51.962;7.162;2023-03-25T17:01:51;1.13;;;0.70;;
15871;SDS011;8035;51.962;7.162;2023-03-25T17:04:20;2.63;;;1.00;;
15871;SDS011;8035;51.962;7.162;2023-03-25T17:06:48;1.70;;;0.80;;
15871;SDS011;8035;51.962;7.162;2023-03-25T17:09:21;1.30;;;1.00;;
15871;SDS011;8035;51.962;7.162;2023-03-25T17:11:50;1.93;;;0.93;;
15871;SDS011;8035;51.962;7.162;2023-03-25T17:14:17;2.70;;;1.50;;
15871;SDS011;8035;51.962;7.162;2023-03-25T17:16:44;1.40;;;1.10;;
15871;SDS011;8035;51.962;7.162;2023-03-25T17:19:12;1.93;;;1.07;;
15871;SDS011;8035;51.962;7.162;2023-03-25T17:21:56;2.20;;;1.07;;
15871;SDS011;8035;51.962;7.162;2023-03-25T17:24:22;1.00;;;0.90;;
15871;SDS011;8035;51.962;7.162;2023-03-25T17:26:53;1.37;;;0.83;;
15871;SDS011;8035;51.962;7.162;2023-03-25T17:29:20;1.83;;;1.00;;
15871;SDS011;8035;51.962;7.162;2023-03-25T17:31:52;1.27;;;1.10;;
15871;SDS011;8035;51.962;7.162;2023-03-25T17:34:20;3.57;;;1.30;;
15871;SDS011;8035;51.962;7.162;2023-03-25T17:36:47;3.70;;;1.40;;
15871;SDS011;8035;51.962;7.162;2023-03-25T17:39:18;3.37;;;1.47;;
15871;SDS011;8035;51.962;7.162;2023-03-25T17:41:44;3.20;;;1.40;;
15871;SDS011;8035;51.962;7.162;2023-03-25T17:44:13;4.87;;;1.73;;
15871;SDS011;8035;51.962;7.162;2023-03-25T17:46:39;3.87;;;1.67;;
15871;SDS011;8035;51.962;7.162;2023-03-25T17:49:13;4.87;;;1.67;;